Time;durP1;ratioP1;P1;durP2;ratioP2;P2;SDS_P1;SDS_P2;PMS_P1;PMS_P2;Temp;Humidity;BMP_temperature;BMP_pressure;BME280_temperature;BME280_humidity;BME280_pressure;Samples;Min_cycle;Max_cycle;Signal;HPM_P1;HPM_P2
2024/01/14 00:04:24;;;;;;;;;;;;;;;;;;;;;
2024/01/14 00:07:35;;;;;;;;;;;;;;;;;;;;;
2024/01/14 00:11:06;;;;;;;;;;;;;;;;;;;;;
2024/01/14 00:14:29;;;;;;;;;;;;;;;;;;;;;
2024/01/14 00:17:28;;;;;;;;;;;;;;;;;;;;;
2024/01/14 00:21:13;;;;;;;;;;;;;;;;;;;;;
2024/01/14 00:24:44;;;;;;;;;;;;;;;;;;;;;
2024/01/14 00:28:03;;;;;;;;;;;;;;;;;;;;;
2024/01/14 00:31:37;;;;;;;;;;;;;;;;;;;;;
2024/01/14 00:35:04;;;;;;;;;;;;;;;;;;;;;
2024/01/14 00:37:49;;;;;;;;;;;-12.30;66.00;;;;;;5024619;28;19929;-84
2024/01/14 00:40:34;;;;;;;;;;;-12.30;66.00;;;;;;5031232;28;20035;-84
2024/01/14 00:43:42;;;;;;;;;;;;;;;;;;;;;
2024/01/14 00:47:00;;;;;;;;;;;;;;;;;;;;;
2024/01/14 00:50:21;;;;;;;;;;;-12.40;66.10;;;;;;4985128;28;20371;-84
2024/01/14 00:54:05;;;;;;;;;;;-12.40;66.10;;;;;;4948229;28;20095;-83
2024/01/14 00:57:53;;;;;;;;;;;;;;;;;;;;;
2024/01/14 01:01:10;;;;;;;;;;;;;;;;;;;;;
2024/01/14 01:04:33;;;;;;;;;;;;;;;;;;;;;
2024/01/14 01:07:42;;;;;;;;;;;;;;;;;;;;;
2024/01/14 01:11:18;;;;;;;;;;;;;;;;;;;;;
2024/01/14 01:14:41;;;;;;;;;;;-12.40;66.10;;;;;;4787492;29;19964;-84
2024/01/14 01:33:22;;;;;;;;;;;-12.70;66.20;;;;;;4761890;29;19937;-85
2024/01/14 01:40:49;;;;;;;;;;;;;;;;;;;;;
2024/01/14 01:44:00;;;;;;;;;;;-12.80;66.10;;;;;;4838449;29;19932;-84
2024/01/14 01:47:22;;;;;;;;;;;;;;;;;;;;;
2024/01/14 01:54:18;;;;;;;;;;;;;;;;;;;;;
2024/01/14 01:57:24;;;;;;;;;;;;;;;;;;;;;
2024/01/14 02:00:45;;;;;;;;;;;;;;;;;;;;;
2024/01/14 02:03:44;;;;;;;;;;;;;;;;;;;;;
2024/01/14 02:06:57;;;;;;;;;;;;;;;;;;;;;
2024/01/14 02:09:54;;;;;;;;;;;-12.80;66.40;;;;;;4912630;29;20398;-86
2024/01/14 02:13:14;;;;;;;;;;;;;;;;;;;;;
2024/01/14 02:16:40;;;;;;;;;;;;;;;;;;;;;
2024/01/14 02:19:43;;;;;;;;;;;;;;;;;;;;;
2024/01/14 02:23:40;;;;;;;;;;;;;;;;;;;;;
2024/01/14 02:26:40;;;;;;;;;;;;;;;;;;;;;
2024/01/14 02:29:31;;;;;;;;;;;;;;;;;;;;;
2024/01/14 02:32:36;;;;;;;;;;;;;;;;;;;;;
2024/01/14 02:39:59;;;;;;;;;;;;;;;;;;;;;
2024/01/14 02:43:00;;;;;;;;;;;-12.80;66.00;;;;;;4913697;29;20403;-85
2024/01/14 02:46:06;;;;;;;;;;;-12.80;66.00;;;;;;4923710;29;20077;-84
2024/01/14 02:48:34;;;;;;;;;;;-12.70;66.20;;;;;;4979740;28;19937;-84
2024/01/14 02:51:07;;;;;;;;;;;-12.80;66.40;;;;;;5003030;28;19929;-85
2024/01/14 02:53:37;;;;;;;;;;;-12.80;66.40;;;;;;5056062;28;19928;-83
2024/01/14 02:56:10;;;;;;;;;;;-12.70;66.40;;;;;;5051715;28;19933;-83
2024/01/14 02:59:43;;;;;;;;;;;;;;;;;;;;;
2024/01/14 03:03:04;;;;;;;;;;;;;;;;;;;;;
2024/01/14 03:05:44;;;;;;;;;;;-12.70;65.90;;;;;;4932331;29;20422;-82
2024/01/14 03:08:38;;;;;;;;;;;-12.70;65.90;;;;;;4937010;29;19930;-81
2024/01/14 03:11:35;;;;;;;;;;;;;;;;;;;;;
2024/01/14 03:14:34;;;;;;;;;;;-12.70;66.00;;;;;;4944242;29;19930;-84
2024/01/14 03:17:04;;;;;;;;;;;-12.70;66.10;;;;;;5018471;28;19936;-84
2024/01/14 03:20:21;;;;;;;;;;;;;;;;;;;;;
2024/01/14 03:23:48;;;;;;;;;;;;;;;;;;;;;
2024/01/14 03:27:33;;;;;;;;;;;-12.60;66.10;;;;;;4922950;29;19931;-86
2024/01/14 03:30:19;;;;;;;;;;;-12.60;66.10;;;;;;4872723;28;19929;-84
2024/01/14 03:33:54;;;;;;;;;;;;;;;;;;;;;
2024/01/14 03:37:12;;;;;;;;;;;;;;;;;;;;;
2024/01/14 03:44:16;;;;;;;;;;;-12.40;66.00;;;;;;4803215;29;19946;-88
2024/01/14 03:47:29;;;;;;;;;;;-12.40;65.70;;;;;;4786161;29;19972;-83
2024/01/14 03:51:04;;;;;;;;;;;;;;;;;;;;;
2024/01/14 04:08:01;;;;;;;;;;;-12.40;65.70;;;;;;5063367;28;20392;-84
2024/01/14 04:10:48;;;;;;;;;;;-12.30;65.70;;;;;;5045944;28;19933;-86
2024/01/14 04:13:35;;;;;;;;;;;-11.90;65.80;;;;;;5067207;28;19955;-85
2024/01/14 04:16:07;;;;;;;;;;;-12.00;65.60;;;;;;5079262;28;19955;-85
2024/01/14 04:22:41;;;;;;;;;;;-12.10;65.30;;;;;;5021130;28;20428;-85
2024/01/14 04:25:56;;;;;;;;;;;-12.00;65.30;;;;;;5045161;28;19928;-85
2024/01/14 04:28:50;;;;;;;;;;;-11.90;65.50;;;;;;5063609;28;19933;-85
2024/01/14 04:31:56;;;;;;;;;;;;;;;;;;;;;
2024/01/14 04:34:53;;;;;;;;;;;-11.80;64.90;;;;;;5028020;28;19951;-83
2024/01/14 04:37:25;;;;;;;;;;;-11.70;64.90;;;;;;5047406;28;19929;-84
2024/01/14 04:40:16;;;;;;;;;;;-11.90;65.00;;;;;;5089231;28;19936;-82
2024/01/14 04:42:46;;;;;;;;;;;-11.90;64.90;;;;;;5079396;28;19936;-84
2024/01/14 04:48:18;;;;;;;;;;;-11.90;65.00;;;;;;5040580;28;19929;-84
2024/01/14 04:51:08;;;;;;;;;;;-11.90;65.30;;;;;;5051633;28;20293;-84
2024/01/14 04:53:42;;;;;;;;;;;-11.90;65.20;;;;;;5067005;28;19928;-84
2024/01/14 04:56:18;;;;;;;;;;;-11.90;65.20;;;;;;5038493;28;19971;-84
2024/01/14 04:59:16;;;;;;;;;;;-11.90;65.30;;;;;;5043041;28;19932;-84
2024/01/14 05:05:07;;;;;;;;;;;-11.80;65.20;;;;;;4990499;28;20406;-84
2024/01/14 05:07:38;;;;;;;;;;;-11.80;65.40;;;;;;5057060;28;19998;-83
2024/01/14 05:10:13;;;;;;;;;;;-11.70;65.60;;;;;;5040229;28;19928;-83
2024/01/14 05:12:57;;;;;;;;;;;-11.80;65.50;;;;;;5052089;28;20388;-85
2024/01/14 05:15:43;;;;;;;;;;;-11.70;65.60;;;;;;5044782;28;19933;-83
2024/01/14 05:18:46;;;;;;;;;;;-11.60;65.70;;;;;;5044952;28;19929;-85
2024/01/14 05:21:42;;;;;;;;;;;-11.60;65.50;;;;;;5037044;28;19928;-84
2024/01/14 05:24:31;;;;;;;;;;;-11.60;65.60;;;;;;5056204;28;19929;-85
2024/01/14 05:27:07;;;;;;;;;;;-11.50;65.70;;;;;;5079054;28;20308;-85
2024/01/14 05:29:54;;;;;;;;;;;-11.60;65.50;;;;;;5086138;28;19951;-87
2024/01/14 05:36:21;;;;;;;;;;;-11.40;65.80;;;;;;4924692;29;19930;-84
2024/01/14 05:39:16;;;;;;;;;;;-11.50;65.40;;;;;;4954284;28;19929;-84
2024/01/14 05:42:45;;;;;;;;;;;;;;;;;;;;;
2024/01/14 05:45:29;;;;;;;;;;;-11.40;65.50;;;;;;5039388;28;19929;-84
2024/01/14 05:51:42;;;;;;;;;;;-11.40;65.40;;;;;;4920208;29;19937;-86
2024/01/14 05:54:26;;;;;;;;;;;;;;;;;;;;;
2024/01/14 05:56:59;;;;;;;;;;;-11.40;65.30;;;;;;5038883;28;19929;-85
2024/01/14 06:03:32;;;;;;;;;;;-11.40;65.50;;;;;;5044931;28;19976;-84
2024/01/14 06:06:13;;;;;;;;;;;-11.30;65.50;;;;;;5038126;28;19940;-83
2024/01/14 06:09:05;;;;;;;;;;;-11.30;65.50;;;;;;5022342;28;19940;-84
2024/01/14 06:17:48;;;;;;;;;;;-11.30;65.10;;;;;;5026247;28;19933;-85
2024/01/14 06:21:21;;;;;;;;;;;;;;;;;;;;;
2024/01/14 06:29:30;;;;;;;;;;;-11.30;65.40;;;;;;4826602;29;20033;-84
2024/01/14 06:32:36;;;;;;;;;;;-11.30;65.10;;;;;;4912977;29;19939;-85
2024/01/14 06:35:16;;;;;;;;;;;-11.40;65.10;;;;;;4896211;29;19935;-87
2024/01/14 06:38:03;;;;;;;;;;;-11.30;65.30;;;;;;4901972;29;19940;-88
2024/01/14 06:41:03;;;;;;;;;;;-11.20;65.60;;;;;;4973589;28;20013;-87
2024/01/14 06:48:06;;;;;;;;;;;-11.30;65.40;;;;;;4924604;29;20399;-87
2024/01/14 06:50:52;;;;;;;;;;;-11.30;65.00;;;;;;4910326;29;20004;-85
2024/01/14 06:53:57;;;;;;;;;;;-11.30;65.20;;;;;;4913376;29;20350;-85
2024/01/14 06:56:38;;;;;;;;;;;-11.30;65.00;;;;;;4937176;29;19931;-86
2024/01/14 06:59:18;;;;;;;;;;;-11.20;65.30;;;;;;5009547;28;19928;-83
2024/01/14 07:01:48;;;;;;;;;;;-11.30;65.10;;;;;;5040444;28;19951;-82
2024/01/14 07:04:57;;;;;;;;;;;-11.20;65.00;;;;;;5056812;28;19932;-83
2024/01/14 07:08:16;;;;;;;;;;;;;;;;;;;;;
2024/01/14 07:11:24;;;;;;;;;;;-11.10;65.10;;;;;;4991497;28;19930;-83
2024/01/14 07:17:24;;;;;;;;;;;-11.30;64.90;;;;;;5008534;28;20375;-87
2024/01/14 07:19:54;;;;;;;;;;;-11.30;64.80;;;;;;5013764;28;19934;-86
2024/01/14 07:22:25;;;;;;;;;;;-11.30;65.00;;;;;;4988030;28;20464;-85
2024/01/14 07:25:16;;;;;;;;;;;;;;;;;;;;;
2024/01/14 07:27:49;;;;;;;;;;;-11.20;64.80;;;;;;5018692;28;20394;-83
2024/01/14 07:31:22;;;;;;;;;;;;;;;;;;;;;
2024/01/14 07:34:35;;;;;;;;;;;-11.30;64.80;;;;;;4995175;28;19929;-82
2024/01/14 07:37:10;;;;;;;;;;;-11.40;64.80;;;;;;4995631;28;20309;-82
2024/01/14 07:39:54;;;;;;;;;;;-11.30;64.70;;;;;;5024221;28;19929;-84
2024/01/14 07:42:33;;;;;;;;;;;-11.40;64.60;;;;;;4995328;28;20304;-84
2024/01/14 07:45:07;;;;;;;;;;;-11.50;64.40;;;;;;4976586;28;19929;-84
2024/01/14 07:47:34;;;;;;;;;;;-11.50;64.30;;;;;;5009611;28;19937;-80
2024/01/14 07:50:13;;;;;;;;;;;-11.40;64.70;;;;;;5011366;28;19951;-81
2024/01/14 07:52:44;;;;;;;;;;;-11.50;64.30;;;;;;4998287;28;19987;-80
2024/01/14 07:55:14;;;;;;;;;;;-11.50;64.60;;;;;;5023131;28;19929;-85
2024/01/14 07:58:19;;;;;;;;;;;-11.50;64.50;;;;;;5019165;28;19968;-84
2024/01/14 08:01:19;;;;;;;;;;;-11.50;64.40;;;;;;5016759;28;20007;-79
2024/01/14 08:04:33;;;;;;;;;;;-11.50;64.50;;;;;;5014737;28;19929;-84
2024/01/14 08:07:17;;;;;;;;;;;-11.40;65.40;;;;;;5016640;28;19995;-84
2024/01/14 08:10:02;;;;;;;;;;;;;;;;;;;;;
2024/01/14 08:16:56;;;;;;;;;;;-11.30;63.80;;;;;;4915978;28;19978;-84
2024/01/14 08:23:50;;;;;;;;;;;-11.30;63.50;;;;;;5012456;28;19995;-86
2024/01/14 08:31:21;;;;;;;;;;;;;;;;;;;;;
2024/01/14 08:35:04;;;;;;;;;;;;;;;;;;;;;
2024/01/14 09:01:04;;;;;;;;;;;-10.90;62.90;;;;;;4930730;28;19930;-86
2024/01/14 09:03:58;;;;;;;;;;;-10.90;62.20;;;;;;4940232;29;20417;-82
2024/01/14 09:06:37;;;;;;;;;;;-10.90;62.00;;;;;;5017145;28;19933;-79
2024/01/14 09:10:07;;;;;;;;;;;-11.00;61.90;;;;;;4988679;28;19936;-86
2024/01/14 09:13:45;;;;;;;;;;;-10.90;62.00;;;;;;4877349;29;20018;-86
2024/01/14 09:16:18;;;;;;;;;;;-10.80;61.90;;;;;;5007868;28;19929;-80
2024/01/14 09:18:50;;;;;;;;;;;-10.90;62.20;;;;;;5020903;28;19929;-82
2024/01/14 09:22:02;;;;;;;;;;;-10.80;62.00;;;;;;5013321;28;20011;-82
2024/01/14 09:24:42;;;;;;;;;;;-10.70;61.90;;;;;;5008762;28;19929;-83
2024/01/14 09:27:19;;;;;;;;;;;-10.50;61.60;;;;;;5012409;28;19933;-81
2024/01/14 09:30:25;;;;;;;;;;;-10.40;61.40;;;;;;4990384;28;19977;-82
2024/01/14 09:33:14;;;;;;;;;;;;;;;;;;;;;
2024/01/14 09:36:32;;;;;;;;;;;;;;;;;;;;;
2024/01/14 09:39:22;;;;;;;;;;;;;;;;;;;;;
2024/01/14 09:42:11;;;;;;;;;;;-10.10;59.90;;;;;;5018650;28;19929;-86
2024/01/14 09:47:55;;;;;;;;;;;-10.20;60.10;;;;;;5001119;28;19929;-86
2024/01/14 09:50:46;;;;;;;;;;;-10.10;60.10;;;;;;4999971;28;19936;-86
2024/01/14 09:54:14;;;;;;;;;;;-9.90;60.40;;;;;;4911352;29;19932;-86
2024/01/14 09:57:29;;;;;;;;;;;-10.00;60.00;;;;;;4927116;28;20038;-87
2024/01/14 10:00:46;;;;;;;;;;;-9.90;60.20;;;;;;4938734;29;19994;-84
2024/01/14 10:03:57;;;;;;;;;;;-9.90;60.00;;;;;;4941813;28;19930;-83
2024/01/14 10:07:07;;;;;;;;;;;-9.90;60.00;;;;;;4922057;29;19930;-85
2024/01/14 10:10:51;;;;;;;;;;;;;;;;;;;;;
2024/01/14 10:13:58;;;;;;;;;;;-9.80;59.40;;;;;;4937543;29;20159;-86
2024/01/14 10:20:41;;;;;;;;;;;-9.80;59.30;;;;;;4917110;29;19931;-83
2024/01/14 10:24:05;;;;;;;;;;;-9.70;59.50;;;;;;4934264;29;19930;-85
2024/01/14 10:27:05;;;;;;;;;;;;;;;;;;;;;
2024/01/14 10:34:54;;;;;;;;;;;-9.80;59.80;;;;;;4831164;29;19933;-84
2024/01/14 10:49:39;;;;;;;;;;;;;;;;;;;;;
2024/01/14 11:34:17;;;;;;;;;;;;;;;;;;;;;
2024/01/14 11:50:16;;;;;;;;;;;;;;;;;;;;;
2024/01/14 11:53:57;;;;;;;;;;;;;;;;;;;;;
2024/01/14 11:57:03;;;;;;;;;;;;;;;;;;;;;
2024/01/14 12:00:28;;;;;;;;;;;;;;;;;;;;;
2024/01/14 12:04:20;;;;;;;;;;;-10.40;62.20;;;;;;4933671;29;19938;-83
2024/01/14 12:11:11;;;;;;;;;;;-10.40;62.20;;;;;;4827597;29;19943;-83
2024/01/14 12:14:38;;;;;;;;;;;;;;;;;;;;;
2024/01/14 12:22:43;;;;;;;;;;;;;;;;;;;;;
2024/01/14 12:25:56;;;;;;;;;;;-10.40;62.30;;;;;;4876207;29;19932;-83
2024/01/14 12:29:02;;;;;;;;;;;;;;;;;;;;;
2024/01/14 12:32:24;;;;;;;;;;;;;;;;;;;;;
2024/01/14 12:35:49;;;;;;;;;;;;;;;;;;;;;
2024/01/14 12:39:23;;;;;;;;;;;-10.40;63.00;;;;;;4796334;29;20023;-88
2024/01/14 12:42:57;;;;;;;;;;;-10.40;63.00;;;;;;4868533;29;19932;-82
2024/01/14 12:45:28;;;;;;;;;;;-10.30;63.30;;;;;;4929583;28;19934;-83
2024/01/14 12:48:00;;;;;;;;;;;-10.30;63.40;;;;;;5020393;28;20397;-85
2024/01/14 12:50:35;;;;;;;;;;;-10.30;63.30;;;;;;5050296;28;19959;-85
2024/01/14 12:57:30;;;;;;;;;;;;;;;;;;;;;
2024/01/14 13:15:44;;;;;;;;;;;;;;;;;;;;;
2024/01/14 13:18:37;;;;;;;;;;;;;;;;;;;;;
2024/01/14 13:21:39;;;;;;;;;;;-10.40;63.90;;;;;;4847031;29;19940;-86
2024/01/14 13:24:54;;;;;;;;;;;-10.20;64.00;;;;;;4854014;29;19931;-82
2024/01/14 13:27:26;;;;;;;;;;;-10.30;64.10;;;;;;4901424;29;19931;-80
2024/01/14 13:29:55;;;;;;;;;;;-10.30;64.10;;;;;;4958975;28;20012;-82
2024/01/14 13:32:24;;;;;;;;;;;-10.30;64.10;;;;;;4952524;28;19937;-84
2024/01/14 13:34:56;;;;;;;;;;;-10.20;63.90;;;;;;4959556;28;19935;-84
2024/01/14 13:37:24;;;;;;;;;;;-10.30;64.30;;;;;;4996740;28;19930;-84
2024/01/14 13:39:54;;;;;;;;;;;-10.20;64.30;;;;;;5015883;28;19933;-82
2024/01/14 13:42:26;;;;;;;;;;;-10.30;64.10;;;;;;5014958;28;19929;-83
2024/01/14 13:44:53;;;;;;;;;;;-10.30;64.40;;;;;;5012580;28;19965;-84
2024/01/14 13:47:21;;;;;;;;;;;-10.20;64.90;;;;;;5012225;28;20049;-82
2024/01/14 13:49:51;;;;;;;;;;;-10.20;65.10;;;;;;5009353;28;19936;-82
2024/01/14 13:52:19;;;;;;;;;;;-10.10;65.00;;;;;;5036036;28;19929;-82
2024/01/14 13:54:47;;;;;;;;;;;-10.20;64.80;;;;;;5014813;28;19929;-85
2024/01/14 13:57:15;;;;;;;;;;;-10.10;64.80;;;;;;5012963;28;19965;-82
2024/01/14 13:59:43;;;;;;;;;;;-10.20;64.60;;;;;;4996222;28;20304;-80
2024/01/14 14:02:33;;;;;;;;;;;;;;;;;;;;;
2024/01/14 14:05:08;;;;;;;;;;;-10.00;65.30;;;;;;5023357;28;20384;-84
2024/01/14 14:07:37;;;;;;;;;;;-10.20;65.10;;;;;;5016550;28;19940;-82
2024/01/14 14:10:06;;;;;;;;;;;-10.10;65.10;;;;;;4993069;28;20381;-84
2024/01/14 14:12:35;;;;;;;;;;;-10.20;65.20;;;;;;5001329;28;19965;-85
2024/01/14 14:15:05;;;;;;;;;;;-10.20;65.20;;;;;;5014701;28;20491;-84
2024/01/14 14:17:38;;;;;;;;;;;-10.20;65.20;;;;;;5025029;28;19929;-84
2024/01/14 14:20:12;;;;;;;;;;;-10.20;65.40;;;;;;5017090;28;19929;-84
2024/01/14 14:22:51;;;;;;;;;;;-10.20;65.60;;;;;;5010239;28;19933;-84
2024/01/14 14:25:18;;;;;;;;;;;-10.20;65.60;;;;;;5010918;28;19956;-82
2024/01/14 14:27:48;;;;;;;;;;;-10.20;65.60;;;;;;5016305;28;19929;-81
2024/01/14 14:30:26;;;;;;;;;;;-10.20;65.70;;;;;;5038339;28;19936;-82
2024/01/14 14:33:00;;;;;;;;;;;-10.10;65.70;;;;;;5036700;28;20396;-81
2024/01/14 14:35:49;;;;;;;;;;;-10.20;66.40;;;;;;5015778;28;20032;-83
2024/01/14 14:38:28;;;;;;;;;;;-10.20;65.90;;;;;;5038535;28;19992;-83
2024/01/14 14:41:28;;;;;;;;;;;;;;;;;;;;;
2024/01/14 14:44:16;;;;;;;;;;;-10.10;66.00;;;;;;5030582;28;19933;-81
2024/01/14 14:47:08;;;;;;;;;;;-10.00;66.10;;;;;;5017984;28;19929;-83
2024/01/14 14:50:30;;;;;;;;;;;;;;;;;;;;;
2024/01/14 14:58:09;;;;;;;;;;;;;;;;;;;;;
2024/01/14 15:05:19;;;;;;;;;;;;;;;;;;;;;
2024/01/14 15:08:51;;;;;;;;;;;;;;;;;;;;;
2024/01/14 15:19:28;;;;;;;;;;;-10.20;66.40;;;;;;4856964;29;20708;-85
2024/01/14 16:03:30;;;;;;;;;;;;;;;;;;;;;
2024/01/14 16:06:54;;;;;;;;;;;;;;;;;;;;;
2024/01/14 16:10:15;;;;;;;;;;;;;;;;;;;;;
2024/01/14 16:13:25;;;;;;;;;;;-10.30;66.40;;;;;;4778970;29;19988;-83
2024/01/14 16:16:49;;;;;;;;;;;;;;;;;;;;;
2024/01/14 16:20:01;;;;;;;;;;;;;;;;;;;;;
2024/01/14 16:23:21;;;;;;;;;;;;;;;;;;;;;
2024/01/14 16:26:50;;;;;;;;;;;;;;;;;;;;;
2024/01/14 16:30:15;;;;;;;;;;;;;;;;;;;;;
2024/01/14 16:44:21;;;;;;;;;;;;;;;;;;;;;
2024/01/14 16:47:15;;;;;;;;;;;-10.00;66.10;;;;;;4718822;30;19999;-83
2024/01/14 16:49:54;;;;;;;;;;;-10.20;65.70;;;;;;4728250;30;19934;-81
2024/01/14 16:53:18;;;;;;;;;;;;;;;;;;;;;
2024/01/14 16:56:32;;;;;;;;;;;-10.30;65.70;;;;;;4780824;30;19940;-83
2024/01/14 16:59:00;;;;;;;;;;;-10.30;66.50;;;;;;4804869;29;20486;-85
2024/01/14 17:01:35;;;;;;;;;;;-10.30;66.20;;;;;;4870801;29;19977;-85
2024/01/14 17:04:03;;;;;;;;;;;-10.30;66.10;;;;;;4920015;29;20047;-85
2024/01/14 17:06:34;;;;;;;;;;;-10.30;66.10;;;;;;4889751;29;19974;-83
2024/01/14 17:09:05;;;;;;;;;;;-10.30;66.30;;;;;;4897234;29;19941;-84
2024/01/14 17:11:34;;;;;;;;;;;-10.30;66.50;;;;;;4900118;29;19931;-88
2024/01/14 17:14:02;;;;;;;;;;;-10.20;66.50;;;;;;4899763;29;19991;-88
2024/01/14 17:16:29;;;;;;;;;;;-10.10;66.50;;;;;;4915163;29;20359;-87
2024/01/14 17:19:16;;;;;;;;;;;-10.10;66.30;;;;;;4913735;29;19931;-85
2024/01/14 17:21:49;;;;;;;;;;;-10.20;66.10;;;;;;4906701;29;19931;-81
2024/01/14 17:24:16;;;;;;;;;;;-10.10;66.30;;;;;;4901773;29;19969;-85
2024/01/14 17:26:44;;;;;;;;;;;-10.10;66.40;;;;;;4905575;29;19938;-87
2024/01/14 17:29:14;;;;;;;;;;;-10.10;66.10;;;;;;4920979;29;19932;-85
2024/01/14 17:31:44;;;;;;;;;;;-10.00;66.30;;;;;;4909793;29;19938;-86
2024/01/14 17:34:14;;;;;;;;;;;-10.10;66.70;;;;;;4890500;29;20391;-86
2024/01/14 17:36:44;;;;;;;;;;;-10.10;66.00;;;;;;4907325;29;19935;-85
2024/01/14 17:39:37;;;;;;;;;;;-10.10;66.00;;;;;;4908418;29;20332;-88
2024/01/14 17:46:18;;;;;;;;;;;-10.00;66.10;;;;;;4908281;29;20027;-86
2024/01/14 17:50:06;;;;;;;;;;;;;;;;;;;;;
2024/01/14 17:58:07;;;;;;;;;;;;;;;;;;;;;
2024/01/14 18:04:33;;;;;;;;;;;;;;;;;;;;;
2024/01/14 18:08:01;;;;;;;;;;;;;;;;;;;;;
2024/01/14 18:11:15;;;;;;;;;;;-9.90;66.20;;;;;;4731545;30;19938;-81
2024/01/14 18:17:58;;;;;;;;;;;-9.80;66.20;;;;;;4725247;30;19935;-87
2024/01/14 18:21:13;;;;;;;;;;;-9.80;66.10;;;;;;4727736;30;19934;-83
2024/01/14 18:24:05;;;;;;;;;;;;;;;;;;;;;
2024/01/14 18:26:53;;;;;;;;;;;;;;;;;;;;;
2024/01/14 18:30:35;;;;;;;;;;;;;;;;;;;;;
2024/01/14 19:01:13;;;;;;;;;;;-9.70;66.40;;;;;;4688639;30;19942;-86
2024/01/14 19:03:55;;;;;;;;;;;-9.70;66.40;;;;;;4696634;30;19965;-89
2024/01/14 19:06:59;;;;;;;;;;;;;;;;;;;;;
2024/01/14 19:14:12;;;;;;;;;;;;;;;;;;;;;
2024/01/14 19:18:16;;;;;;;;;;;;;;;;;;;;;
2024/01/14 19:28:48;;;;;;;;;;;-9.30;67.20;;;;;;4804156;29;19932;-87
2024/01/14 19:32:29;;;;;;;;;;;;;;;;;;;;;
2024/01/14 19:35:39;;;;;;;;;;;-9.20;67.00;;;;;;4879033;29;19931;-82
2024/01/14 19:38:48;;;;;;;;;;;-9.20;66.80;;;;;;4890401;29;20030;-84
2024/01/14 19:42:02;;;;;;;;;;;-9.10;66.60;;;;;;4875867;29;19975;-85
2024/01/14 19:54:03;;;;;;;;;;;;;;;;;;;;;
2024/01/14 20:22:54;;;;;;;;;;;-8.80;66.40;;;;;;4839832;29;19937;-89
2024/01/14 20:29:16;;;;;;;;;;;-9.00;66.20;;;;;;4822839;29;19939;-90
2024/01/14 20:32:05;;;;;;;;;;;-8.90;66.80;;;;;;4818094;29;20035;-85
2024/01/14 20:34:41;;;;;;;;;;;-9.00;66.80;;;;;;4813050;29;19982;-87
2024/01/14 20:37:16;;;;;;;;;;;-9.00;66.80;;;;;;4821039;29;19937;-85
2024/01/14 20:39:49;;;;;;;;;;;-8.90;66.80;;;;;;4871276;29;19931;-85
2024/01/14 20:42:59;;;;;;;;;;;-8.80;66.70;;;;;;4908623;29;19931;-88
2024/01/14 20:46:21;;;;;;;;;;;-8.90;66.20;;;;;;4889517;29;19953;-87
2024/01/14 20:49:33;;;;;;;;;;;-9.00;66.40;;;;;;4878104;29;19995;-85
2024/01/14 20:52:22;;;;;;;;;;;-9.00;66.70;;;;;;4870839;29;19943;-84
2024/01/14 20:55:35;;;;;;;;;;;-8.90;66.80;;;;;;4876528;29;20035;-84
2024/01/14 21:02:44;;;;;;;;;;;;;;;;;;;;;
2024/01/14 21:06:19;;;;;;;;;;;;;;;;;;;;;
2024/01/14 21:14:20;;;;;;;;;;;;;;;;;;;;;
2024/01/14 21:24:26;;;;;;;;;;;-8.70;66.60;;;;;;4715996;30;19934;-90
2024/01/14 21:27:27;;;;;;;;;;;-8.70;66.40;;;;;;4753588;30;19956;-90
2024/01/14 21:30:25;;;;;;;;;;;-8.80;66.40;;;;;;4801741;29;19932;-85
2024/01/14 21:33:00;;;;;;;;;;;-8.80;66.20;;;;;;4818732;29;20090;-87
2024/01/14 21:39:30;;;;;;;;;;;;;;;;;;;;;
2024/01/14 21:42:18;;;;;;;;;;;-8.80;66.60;;;;;;4893612;29;19931;-88
2024/01/14 21:45:33;;;;;;;;;;;-8.90;66.90;;;;;;4895639;29;19938;-89
2024/01/14 21:48:10;;;;;;;;;;;-8.90;66.90;;;;;;4870459;29;19931;-86
2024/01/14 21:51:19;;;;;;;;;;;-8.90;66.90;;;;;;4901652;29;19930;-88
2024/01/14 22:19:13;;;;;;;;;;;-8.80;66.60;;;;;;4775270;30;19952;-87
2024/01/14 22:33:50;;;;;;;;;;;;;;;;;;;;;
2024/01/14 22:36:56;;;;;;;;;;;-8.70;67.20;;;;;;4878647;29;20392;-89
2024/01/14 23:52:18;;;;;;;;;;;;;;;;;;;;;
